createdAt,value
2023-02-18T00:00:18.701Z,96.07
2023-02-18T00:02:47.960Z,96.21
2023-02-18T00:05:17.861Z,96.54
2023-02-18T00:07:46.978Z,96.82
2023-02-18T00:10:17.084Z,96.77
2023-02-18T00:12:47.143Z,96.95
2023-02-18T00:15:15.620Z,96.98
2023-02-18T00:17:44.190Z,97.19
2023-02-18T00:20:14.471Z,97.19
2023-02-18T00:22:43.082Z,97.63
2023-02-18T00:25:12.358Z,97.91
2023-02-18T00:27:40.917Z,98.75
2023-02-18T00:30:13.800Z,99.06
2023-02-18T00:32:42.735Z,99.18
2023-02-18T00:35:12.068Z,99.58
2023-02-18T00:37:41.179Z,99.81
2023-02-18T00:40:10.983Z,100.00
2023-02-18T00:42:39.591Z,100.00
2023-02-18T00:45:11.545Z,100.00
2023-02-18T00:47:40.950Z,100.00
2023-02-18T00:50:12.291Z,100.00
2023-02-18T00:52:41.555Z,100.00
2023-02-18T00:55:10.174Z,100.00
2023-02-18T00:57:38.444Z,100.00
2023-02-18T01:00:08.949Z,100.00
2023-02-18T01:02:39.215Z,100.00
2023-02-18T01:05:08.029Z,99.88
2023-02-18T01:07:36.467Z,100.00
2023-02-18T01:10:05.699Z,99.98
2023-02-18T01:12:34.095Z,99.79
2023-02-18T01:15:02.729Z,98.68
2023-02-18T01:17:31.385Z,98.39
2023-02-18T01:20:01.264Z,97.40
2023-02-18T01:22:29.541Z,97.37
2023-02-18T01:24:58.495Z,97.72
2023-02-18T01:27:26.894Z,97.98
2023-02-18T01:29:55.703Z,98.77
2023-02-18T01:32:24.210Z,99.26
2023-02-18T01:34:52.604Z,99.51
2023-02-18T01:37:22.398Z,99.82
2023-02-18T01:39:50.775Z,100.00
2023-02-18T01:42:23.057Z,100.00
2023-02-18T01:44:52.377Z,100.00
2023-02-18T01:47:21.586Z,100.00
2023-02-18T01:49:55.056Z,100.00
2023-02-18T01:52:32.493Z,100.00
2023-02-18T01:55:01.432Z,100.00
2023-02-18T01:57:36.403Z,100.00
2023-02-18T02:00:12.153Z,100.00
2023-02-18T02:02:46.491Z,100.00
2023-02-18T02:05:15.526Z,100.00
2023-02-18T02:07:48.894Z,100.00
2023-02-18T02:10:18.134Z,100.00
2023-02-18T02:13:02.048Z,100.00
2023-02-18T02:15:45.980Z,100.00
2023-02-18T02:18:51.943Z,100.00
2023-02-18T02:22:16.094Z,100.00
2023-02-18T02:25:22.189Z,100.00
2023-02-18T02:28:35.398Z,100.00
2023-02-18T02:31:59.269Z,100.00
2023-02-18T02:34:49.134Z,100.00
2023-02-18T02:37:28.634Z,100.00
2023-02-18T02:40:20.662Z,100.00
2023-02-18T02:43:07.633Z,100.00
2023-02-18T02:45:54.019Z,100.00
2023-02-18T02:48:34.744Z,100.00
2023-02-18T02:51:12.537Z,100.00
2023-02-18T02:53:44.219Z,100.00
2023-02-18T02:57:25.090Z,100.00
2023-02-18T02:59:59.997Z,100.00
2023-02-18T03:02:42.399Z,100.00
2023-02-18T03:05:26.541Z,100.00
2023-02-18T03:08:23.238Z,100.00
2023-02-18T03:11:02.572Z,100.00
2023-02-18T03:13:55.209Z,100.00
2023-02-18T03:16:35.798Z,100.00
2023-02-18T03:19:14.796Z,100.00
2023-02-18T03:21:51.165Z,100.00
2023-02-18T03:24:30.218Z,100.00
2023-02-18T03:27:07.854Z,100.00
2023-02-18T03:29:37.756Z,100.00
2023-02-18T03:32:13.400Z,100.00
2023-02-18T03:34:48.606Z,100.00
2023-02-18T03:37:19.203Z,100.00
2023-02-18T03:39:56.527Z,100.00
2023-02-18T03:42:28.472Z,100.00
2023-02-18T03:44:57.327Z,100.00
2023-02-18T03:47:26.337Z,100.00
2023-02-18T03:49:54.713Z,100.00
2023-02-18T03:52:23.208Z,100.00
2023-02-18T03:54:52.921Z,100.00
2023-02-18T03:57:21.269Z,100.00
2023-02-18T03:59:49.620Z,100.00
2023-02-18T04:02:17.911Z,100.00
2023-02-18T04:04:46.311Z,100.00
2023-02-18T04:07:14.658Z,100.00
2023-02-18T04:09:42.975Z,100.00
2023-02-18T04:12:13.017Z,100.00
2023-02-18T04:14:42.074Z,100.00
2023-02-18T04:17:12.773Z,100.00
2023-02-18T04:19:41.887Z,100.00
2023-02-18T04:22:11.527Z,100.00
2023-02-18T04:24:40.162Z,100.00
2023-02-18T04:27:08.730Z,100.00
2023-02-18T04:29:39.933Z,100.00
2023-02-18T04:32:08.551Z,100.00
2023-02-18T04:34:36.904Z,100.00
2023-02-18T04:37:05.310Z,100.00
2023-02-18T04:39:33.834Z,100.00
2023-02-18T04:42:02.230Z,100.00
2023-02-18T04:44:30.529Z,100.00
2023-02-18T04:47:00.175Z,100.00
2023-02-18T04:49:28.517Z,100.00
2023-02-18T04:51:56.910Z,100.00
2023-02-18T04:54:25.362Z,100.00
2023-02-18T04:56:53.726Z,100.00
2023-02-18T04:59:22.094Z,100.00
2023-02-18T05:01:50.467Z,100.00
2023-02-18T05:04:20.246Z,100.00
2023-02-18T05:06:48.680Z,100.00
2023-02-18T05:09:17.008Z,100.00
2023-02-18T05:11:47.544Z,100.00
2023-02-18T05:14:16.322Z,100.00
2023-02-18T05:16:44.768Z,100.00
2023-02-18T05:19:16.157Z,100.00
2023-02-18T05:21:46.967Z,100.00
2023-02-18T05:24:15.246Z,100.00
2023-02-18T05:26:43.589Z,100.00
2023-02-18T05:29:12.638Z,100.00
2023-02-18T05:31:41.328Z,100.00
2023-02-18T05:34:09.927Z,100.00
2023-02-18T05:36:38.606Z,100.00
2023-02-18T05:39:08.368Z,100.00
2023-02-18T05:41:36.781Z,100.00
2023-02-18T05:44:22.742Z,100.00
2023-02-18T05:46:51.073Z,100.00
2023-02-18T05:49:19.487Z,100.00
2023-02-18T05:51:47.824Z,100.00
2023-02-18T05:54:17.528Z,100.00
2023-02-18T05:56:45.828Z,100.00
2023-02-18T05:59:14.434Z,100.00
2023-02-18T06:01:43.164Z,100.00
2023-02-18T06:04:12.333Z,100.00
2023-02-18T06:06:41.326Z,100.00
2023-02-18T06:09:11.366Z,100.00
2023-02-18T06:11:42.268Z,100.00
2023-02-18T06:14:11.181Z,100.00
2023-02-18T06:16:39.875Z,100.00
2023-02-18T06:19:08.307Z,100.00
2023-02-18T06:21:36.814Z,100.00
2023-02-18T06:24:05.822Z,100.00
2023-02-18T06:26:35.163Z,100.00
2023-02-18T06:29:05.438Z,100.00
2023-02-18T06:31:34.026Z,100.00
2023-02-18T06:34:02.567Z,100.00
2023-02-18T06:36:30.905Z,100.00
2023-02-18T06:38:59.392Z,100.00
2023-02-18T06:41:27.678Z,100.00
2023-02-18T06:43:56.001Z,100.00
2023-02-18T06:46:25.773Z,100.00
2023-02-18T06:48:54.186Z,100.00
2023-02-18T06:51:23.030Z,100.00
2023-02-18T06:53:51.384Z,100.00
2023-02-18T06:56:19.721Z,100.00
2023-02-18T06:58:48.133Z,100.00
2023-02-18T07:01:16.545Z,100.00
2023-02-18T07:03:49.783Z,100.00
2023-02-18T07:06:18.531Z,100.00
2023-02-18T07:08:46.864Z,100.00
2023-02-18T07:11:16.816Z,100.00
2023-02-18T07:13:45.400Z,100.00
2023-02-18T07:16:13.697Z,100.00
2023-02-18T07:18:43.115Z,100.00
2023-02-18T07:21:12.963Z,100.00
2023-02-18T07:23:41.882Z,100.00
2023-02-18T07:26:13.653Z,100.00
2023-02-18T07:28:43.436Z,100.00
2023-02-18T07:31:13.282Z,100.00
2023-02-18T07:33:43.189Z,100.00
2023-02-18T07:36:13.383Z,100.00
2023-02-18T07:38:43.085Z,100.00
2023-02-18T07:41:19.581Z,100.00
2023-02-18T07:43:48.131Z,100.00
2023-02-18T07:46:16.778Z,100.00
2023-02-18T07:48:45.169Z,100.00
2023-02-18T07:51:15.826Z,100.00
2023-02-18T07:53:44.501Z,100.00
2023-02-18T07:56:12.964Z,100.00
2023-02-18T07:58:42.874Z,100.00
2023-02-18T08:01:15.391Z,100.00
2023-02-18T08:03:44.174Z,100.00
2023-02-18T08:06:26.471Z,100.00
2023-02-18T08:08:54.863Z,100.00
2023-02-18T08:11:23.328Z,100.00
2023-02-18T08:13:51.706Z,100.00
2023-02-18T08:16:22.377Z,100.00
2023-02-18T08:18:51.275Z,100.00
2023-02-18T08:21:25.892Z,100.00
2023-02-18T08:23:55.194Z,100.00
2023-02-18T08:26:23.549Z,100.00
2023-02-18T08:28:51.974Z,100.00
2023-02-18T08:31:23.696Z,100.00
2023-02-18T08:33:52.660Z,100.00
2023-02-18T08:36:24.069Z,100.00
2023-02-18T08:38:52.465Z,100.00
2023-02-18T08:41:21.670Z,100.00
2023-02-18T08:43:50.785Z,100.00
2023-02-18T08:46:31.449Z,100.00
2023-02-18T08:49:05.420Z,100.00
2023-02-18T08:51:36.195Z,100.00
2023-02-18T08:54:05.041Z,100.00
2023-02-18T08:56:33.612Z,100.00
2023-02-18T08:59:01.980Z,100.00
2023-02-18T09:01:30.339Z,100.00
2023-02-18T09:03:59.275Z,100.00
2023-02-18T09:06:27.946Z,100.00
2023-02-18T09:08:57.706Z,100.00
2023-02-18T09:11:26.483Z,100.00
2023-02-18T09:13:54.836Z,100.00
2023-02-18T09:16:26.072Z,100.00
2023-02-18T09:18:54.896Z,100.00
2023-02-18T09:21:24.736Z,100.00
2023-02-18T09:23:53.974Z,100.00
2023-02-18T09:26:27.904Z,100.00
2023-02-18T09:28:58.450Z,100.00
2023-02-18T09:31:29.432Z,100.00
2023-02-18T09:34:01.335Z,100.00
2023-02-18T09:36:30.454Z,100.00
2023-02-18T09:38:59.615Z,100.00
2023-02-18T09:41:41.727Z,100.00
2023-02-18T09:44:17.893Z,100.00
2023-02-18T09:46:54.126Z,100.00
2023-02-18T09:49:27.961Z,100.00
2023-02-18T09:51:58.369Z,100.00
2023-02-18T09:54:29.077Z,100.00
2023-02-18T09:57:00.999Z,100.00
2023-02-18T09:59:32.623Z,100.00
2023-02-18T10:02:03.307Z,100.00
2023-02-18T10:04:41.132Z,100.00
2023-02-18T10:07:28.387Z,100.00
2023-02-18T10:10:00.422Z,100.00
2023-02-18T10:12:35.092Z,100.00
2023-02-18T10:15:04.562Z,100.00
2023-02-18T10:17:35.344Z,100.00
2023-02-18T10:20:08.432Z,100.00
2023-02-18T10:22:40.050Z,100.00
2023-02-18T10:25:10.975Z,100.00
2023-02-18T10:27:42.813Z,100.00
2023-02-18T10:30:24.893Z,100.00
2023-02-18T10:33:10.942Z,100.00
2023-02-18T10:35:52.111Z,100.00
2023-02-18T10:38:36.218Z,100.00
2023-02-18T10:41:19.070Z,100.00
2023-02-18T10:43:58.798Z,100.00
2023-02-18T10:46:38.804Z,100.00
2023-02-18T10:49:35.469Z,100.00
2023-02-18T10:52:07.192Z,100.00
2023-02-18T10:54:54.500Z,100.00
2023-02-18T10:57:25.642Z,100.00
2023-02-18T11:00:11.795Z,100.00
2023-02-18T11:02:43.273Z,100.00
2023-02-18T11:05:26.259Z,100.00
2023-02-18T11:07:59.325Z,100.00
2023-02-18T11:10:33.733Z,100.00
2023-02-18T11:13:05.348Z,100.00
2023-02-18T11:15:35.826Z,100.00
2023-02-18T11:18:33.720Z,100.00
2023-02-18T11:21:04.689Z,100.00
2023-02-18T11:23:32.868Z,100.00
2023-02-18T11:26:04.218Z,100.00
2023-02-18T11:28:43.652Z,100.00
2023-02-18T11:31:21.077Z,100.00
2023-02-18T11:33:52.326Z,100.00
2023-02-18T11:36:25.396Z,100.00
2023-02-18T11:38:56.411Z,100.00
2023-02-18T11:41:34.364Z,100.00
2023-02-18T11:44:05.225Z,100.00
2023-02-18T11:46:35.621Z,100.00
2023-02-18T11:49:22.908Z,100.00
2023-02-18T11:51:52.495Z,100.00
2023-02-18T11:54:27.269Z,100.00
2023-02-18T11:56:58.501Z,100.00
2023-02-18T11:59:28.767Z,100.00
2023-02-18T12:02:07.292Z,100.00
2023-02-18T12:04:42.653Z,100.00
2023-02-18T12:07:20.422Z,100.00
2023-02-18T12:09:53.223Z,100.00
2023-02-18T12:12:27.599Z,100.00
2023-02-18T12:14:56.855Z,100.00
2023-02-18T12:17:46.723Z,100.00
2023-02-18T12:20:38.003Z,100.00
2023-02-18T12:23:16.113Z,100.00
2023-02-18T12:25:53.383Z,100.00
2023-02-18T12:28:37.050Z,100.00
2023-02-18T12:31:30.954Z,100.00
2023-02-18T12:34:16.762Z,100.00
2023-02-18T12:36:58.922Z,100.00
2023-02-18T12:39:44.767Z,100.00
2023-02-18T12:42:28.986Z,100.00
2023-02-18T12:45:25.311Z,100.00
2023-02-18T12:48:11.428Z,100.00
2023-02-18T12:51:07.164Z,100.00
2023-02-18T12:54:07.442Z,100.00
2023-02-18T12:57:17.828Z,100.00
2023-02-18T13:00:18.559Z,100.00
2023-02-18T13:03:05.498Z,100.00
2023-02-18T13:05:44.270Z,100.00
2023-02-18T13:08:33.189Z,100.00
2023-02-18T13:11:12.973Z,100.00
2023-02-18T13:13:44.193Z,100.00
2023-02-18T13:16:16.388Z,100.00
2023-02-18T13:18:48.908Z,100.00
2023-02-18T13:21:18.507Z,100.00
2023-02-18T13:23:53.241Z,100.00
2023-02-18T13:26:23.438Z,100.00
2023-02-18T13:29:03.607Z,100.00
2023-02-18T13:31:42.138Z,100.00
2023-02-18T13:34:19.914Z,100.00
2023-02-18T13:37:05.602Z,100.00
2023-02-18T13:39:35.836Z,100.00
2023-02-18T13:42:26.841Z,100.00
2023-02-18T13:45:19.941Z,100.00
2023-02-18T13:47:50.677Z,100.00
2023-02-18T13:50:28.292Z,100.00
2023-02-18T13:53:16.624Z,100.00
2023-02-18T13:55:54.043Z,100.00
2023-02-18T13:58:25.867Z,100.00
2023-02-18T14:00:59.946Z,100.00
2023-02-18T14:03:38.217Z,100.00
2023-02-18T14:06:17.793Z,100.00
2023-02-18T14:08:46.838Z,100.00
2023-02-18T14:11:44.848Z,100.00
2023-02-18T14:14:40.613Z,100.00
2023-02-18T14:17:42.137Z,100.00
2023-02-18T14:20:51.348Z,100.00
2023-02-18T14:23:53.688Z,100.00
2023-02-18T14:26:29.517Z,100.00
2023-02-18T14:29:04.193Z,100.00
2023-02-18T14:31:42.970Z,100.00
2023-02-18T14:34:33.904Z,100.00
2023-02-18T14:37:16.559Z,100.00
2023-02-18T14:39:55.383Z,100.00
2023-02-18T14:42:35.675Z,100.00
2023-02-18T14:45:20.595Z,100.00
2023-02-18T14:48:07.940Z,100.00
2023-02-18T14:50:38.630Z,100.00
2023-02-18T14:53:10.898Z,100.00
2023-02-18T14:55:45.145Z,100.00
2023-02-18T14:58:24.962Z,100.00
2023-02-18T15:00:54.511Z,100.00
2023-02-18T15:03:23.863Z,100.00
2023-02-18T15:05:52.556Z,100.00
2023-02-18T15:08:22.669Z,100.00
2023-02-18T15:10:54.262Z,100.00
2023-02-18T15:13:26.887Z,100.00
2023-02-18T15:15:58.937Z,100.00
2023-02-18T15:18:32.878Z,100.00
2023-02-18T15:21:03.143Z,100.00
2023-02-18T15:23:32.179Z,100.00
2023-02-18T15:26:00.325Z,100.00
2023-02-18T15:28:32.546Z,100.00
2023-02-18T15:31:03.670Z,100.00
2023-02-18T15:33:31.956Z,100.00
2023-02-18T15:36:03.866Z,100.00
2023-02-18T15:38:32.613Z,100.00
2023-02-18T15:41:02.432Z,100.00
2023-02-18T15:43:32.241Z,100.00
2023-02-18T15:46:00.644Z,100.00
2023-02-18T15:48:47.861Z,100.00
2023-02-18T15:51:22.243Z,100.00
2023-02-18T15:53:53.599Z,100.00
2023-02-18T15:56:31.087Z,100.00
2023-02-18T15:59:18.957Z,100.00
2023-02-18T16:01:51.292Z,100.00
2023-02-18T16:04:21.688Z,100.00
2023-02-18T16:06:51.683Z,100.00
2023-02-18T16:09:24.443Z,100.00
2023-02-18T16:11:59.603Z,100.00
2023-02-18T16:14:34.832Z,100.00
2023-02-18T16:17:16.078Z,100.00
2023-02-18T16:20:04.000Z,100.00
2023-02-18T16:22:38.455Z,100.00
2023-02-18T16:25:18.296Z,100.00
2023-02-18T16:27:53.999Z,100.00
2023-02-18T16:30:24.080Z,100.00
2023-02-18T16:32:52.435Z,100.00
2023-02-18T16:35:27.860Z,100.00
2023-02-18T16:37:58.511Z,100.00
2023-02-18T16:40:29.988Z,100.00
2023-02-18T16:43:00.324Z,100.00
2023-02-18T16:45:41.158Z,100.00
2023-02-18T16:48:16.480Z,100.00
2023-02-18T16:50:46.464Z,100.00
2023-02-18T16:53:14.986Z,100.00
2023-02-18T16:55:43.079Z,100.00
2023-02-18T16:58:11.682Z,100.00
2023-02-18T17:00:40.911Z,100.00
2023-02-18T17:03:09.564Z,100.00
2023-02-18T17:05:40.516Z,100.00
2023-02-18T17:08:18.965Z,100.00
2023-02-18T17:10:48.408Z,100.00
2023-02-18T17:13:17.656Z,100.00
2023-02-18T17:15:47.998Z,100.00
2023-02-18T17:18:16.167Z,100.00
